Time,TemperatureF,DewpointF,PressureIn,WindDirection,WindDirectionDegrees,WindSpeedMPH,WindSpeedGustMPH,Humidity,HourlyPrecipIn,Conditions,Clouds,dailyrainin,SoftwareType,DateUTC
2013-07-30 00:02:00,62.2,61.6,29.97,North,0,0.0,-999.0,98,-99.99,,,0.00,Acu-Link.com,2013-07-30 04:02:00,
2013-07-30 00:17:00,61.7,61.1,29.98,North,0,0.0,-999.0,98,-99.99,,,0.00,Acu-Link.com,2013-07-30 04:17:00,
2013-07-30 00:32:00,61.5,60.9,29.97,North,0,0.0,-999.0,98,-99.99,,,0.00,Acu-Link.com,2013-07-30 04:32:00,
2013-07-30 00:48:00,61.0,60.4,29.97,North,0,0.0,-999.0,98,-99.99,,,0.00,Acu-Link.com,2013-07-30 04:48:00,
2013-07-30 01:03:00,61.0,60.4,29.97,North,0,0.0,-999.0,98,-99.99,,,0.00,Acu-Link.com,2013-07-30 05:03:00,
2013-07-30 01:18:00,60.6,60.0,29.97,North,0,0.0,-999.0,98,-99.99,,,0.00,Acu-Link.com,2013-07-30 05:18:00,
2013-07-30 01:33:00,60.6,60.0,29.96,North,0,0.0,-999.0,98,-99.99,,,0.00,Acu-Link.com,2013-07-30 05:33:00,
2013-07-30 01:49:00,60.3,59.7,29.96,North,0,0.0,-999.0,98,-99.99,,,0.00,Acu-Link.com,2013-07-30 05:49:00,
2013-07-30 02:04:00,60.3,59.7,29.96,North,0,0.0,-999.0,98,-99.99,,,0.00,Acu-Link.com,2013-07-30 06:04:00,
2013-07-30 02:19:00,59.9,59.3,29.97,North,0,0.0,-999.0,98,-99.99,,,0.00,Acu-Link.com,2013-07-30 06:19:00,
2013-07-30 02:35:00,59.9,59.3,29.96,North,0,0.0,-999.0,98,-99.99,,,0.00,Acu-Link.com,2013-07-30 06:35:00,
2013-07-30 02:50:00,59.5,58.9,29.96,North,0,0.0,-999.0,98,-99.99,,,0.00,Acu-Link.com,2013-07-30 06:50:00,
2013-07-30 03:05:00,59.5,58.9,29.96,North,0,0.0,-999.0,98,-99.99,,,0.00,Acu-Link.com,2013-07-30 07:05:00,
2013-07-30 03:21:00,59.4,58.8,29.96,North,0,0.0,-999.0,98,-99.99,,,0.00,Acu-Link.com,2013-07-30 07:21:00,
2013-07-30 03:36:00,59.5,58.9,29.96,North,0,0.0,-999.0,98,-99.99,,,0.00,Acu-Link.com,2013-07-30 07:36:00,
2013-07-30 03:51:00,59.2,58.6,29.96,North,0,0.0,-999.0,98,-99.99,,,0.00,Acu-Link.com,2013-07-30 07:51:00,
2013-07-30 04:06:00,59.2,58.6,29.97,North,0,0.0,-999.0,98,-99.99,,,0.00,Acu-Link.com,2013-07-30 08:06:00,
2013-07-30 04:21:00,59.0,58.4,29.96,North,0,0.0,-999.0,98,-99.99,,,0.00,Acu-Link.com,2013-07-30 08:21:00,
2013-07-30 04:37:00,58.6,58.0,29.96,North,0,0.0,-999.0,98,-99.99,,,0.00,Acu-Link.com,2013-07-30 08:37:00,
2013-07-30 04:52:00,58.6,58.0,29.97,North,0,0.0,-999.0,98,-99.99,,,0.00,Acu-Link.com,2013-07-30 08:52:00,
2013-07-30 05:22:00,58.5,57.9,29.97,North,0,0.0,-999.0,98,-99.99,,,0.00,Acu-Link.com,2013-07-30 09:22:00,
2013-07-30 05:38:00,58.3,57.7,29.97,North,0,0.0,-999.0,98,-99.99,,,0.00,Acu-Link.com,2013-07-30 09:38:00,
2013-07-30 05:53:00,57.7,57.1,29.97,North,0,0.0,-999.0,98,-99.99,,,0.00,Acu-Link.com,2013-07-30 09:53:00,
2013-07-30 06:09:00,58.1,57.5,29.97,North,0,0.0,-999.0,98,-99.99,,,0.00,Acu-Link.com,2013-07-30 10:09:00,
2013-07-30 06:24:00,57.7,57.1,29.98,North,0,0.0,-999.0,98,-99.99,,,0.00,Acu-Link.com,2013-07-30 10:24:00,
2013-07-30 06:39:00,57.9,57.3,29.98,North,0,0.0,-999.0,98,-99.99,,,0.00,Acu-Link.com,2013-07-30 10:39:00,
2013-07-30 06:54:00,57.7,57.1,29.99,North,0,0.0,-999.0,98,-99.99,,,0.00,Acu-Link.com,2013-07-30 10:54:00,
2013-07-30 07:09:00,58.3,57.7,30.00,North,0,0.0,-999.0,98,-99.99,,,0.00,Acu-Link.com,2013-07-30 11:09:00,
2013-07-30 07:25:00,58.3,57.7,29.99,North,0,0.0,-999.0,98,-99.99,,,0.00,Acu-Link.com,2013-07-30 11:25:00,
2013-07-30 07:40:00,59.2,58.6,30.00,North,0,0.0,-999.0,98,-99.99,,,0.00,Acu-Link.com,2013-07-30 11:40:00,
2013-07-30 07:56:00,60.4,59.8,30.01,North,0,0.0,-999.0,98,-99.99,,,0.00,Acu-Link.com,2013-07-30 11:56:00,
2013-07-30 08:11:00,61.3,60.7,30.00,North,0,0.0,-999.0,98,-99.99,,,0.00,Acu-Link.com,2013-07-30 12:11:00,
2013-07-30 08:42:00,63.7,63.1,30.02,ESE,112,0.0,-999.0,98,-99.99,,,0.00,Acu-Link.com,2013-07-30 12:42:00,
2013-07-30 09:12:00,66.0,65.4,30.02,NE,45,0.0,-999.0,98,-99.99,,,0.00,Acu-Link.com,2013-07-30 13:12:00,
2013-07-30 09:27:00,67.1,66.5,30.02,ESE,112,0.0,-999.0,98,-99.99,,,0.00,Acu-Link.com,2013-07-30 13:27:00,
2013-07-30 09:43:00,68.9,68.3,30.01,SSE,157,1.7,-999.0,98,-99.99,,,0.00,Acu-Link.com,2013-07-30 13:43:00,
2013-07-30 09:58:00,69.6,69.0,30.01,NNE,22,0.0,-999.0,98,-99.99,,,0.00,Acu-Link.com,2013-07-30 13:58:00,
2013-07-30 10:13:00,70.7,70.1,30.00,East,90,1.1,-999.0,98,-99.99,,,0.00,Acu-Link.com,2013-07-30 14:13:00,
2013-07-30 10:29:00,71.4,70.8,30.01,SW,225,0.0,-999.0,98,-99.99,,,0.00,Acu-Link.com,2013-07-30 14:29:00,
2013-07-30 10:44:00,73.4,72.8,29.99,NNW,337,2.7,-999.0,98,-99.99,,,0.00,Acu-Link.com,2013-07-30 14:44:00,
2013-07-30 10:59:00,74.3,73.7,29.98,East,90,0.0,-999.0,98,-99.99,,,0.00,Acu-Link.com,2013-07-30 14:59:00,
2013-07-30 11:14:00,74.1,73.5,29.99,ESE,112,1.1,-999.0,98,-99.99,,,0.00,Acu-Link.com,2013-07-30 15:14:00,
2013-07-30 11:30:00,74.7,74.1,29.98,SE,135,0.0,-999.0,98,-99.99,,,0.00,Acu-Link.com,2013-07-30 15:30:00,
2013-07-30 11:45:00,75.4,74.8,29.99,SE,135,0.0,-999.0,98,-99.99,,,0.00,Acu-Link.com,2013-07-30 15:45:00,
2013-07-30 12:00:00,75.7,75.1,29.99,West,270,0.0,-999.0,98,-99.99,,,0.00,Acu-Link.com,2013-07-30 16:00:00,
2013-07-30 12:15:00,76.5,75.6,29.97,NNE,22,1.1,-999.0,97,-99.99,,,0.00,Acu-Link.com,2013-07-30 16:15:00,
2013-07-30 12:31:00,75.6,75.0,29.97,South,180,1.1,-999.0,98,-99.99,,,0.00,Acu-Link.com,2013-07-30 16:31:00,
2013-07-30 13:01:00,79.2,75.0,29.98,North,0,2.7,-999.0,87,-99.99,,,0.00,Acu-Link.com,2013-07-30 17:01:00,
2013-07-30 13:17:00,78.8,74.2,29.97,SSE,157,1.7,-999.0,86,-99.99,,,0.00,Acu-Link.com,2013-07-30 17:17:00,
2013-07-30 13:32:00,79.7,74.1,29.96,NNE,22,0.0,-999.0,83,-99.99,,,0.00,Acu-Link.com,2013-07-30 17:32:00,
2013-07-30 13:47:00,81.5,73.6,29.96,NNE,22,2.2,-999.0,77,-99.99,,,0.00,Acu-Link.com,2013-07-30 17:47:00,
2013-07-30 14:02:00,81.5,72.4,29.95,NE,45,1.1,-999.0,74,-99.99,,,0.00,Acu-Link.com,2013-07-30 18:02:00,
2013-07-30 14:18:00,82.2,73.9,29.96,South,180,1.1,-999.0,76,-99.99,,,0.00,Acu-Link.com,2013-07-30 18:18:00,
2013-07-30 14:33:00,81.9,73.6,29.94,NNE,22,2.7,-999.0,76,-99.99,,,0.00,Acu-Link.com,2013-07-30 18:33:00,
2013-07-30 14:48:00,82.0,75.2,29.95,NNE,22,2.2,-999.0,80,-99.99,,,0.00,Acu-Link.com,2013-07-30 18:48:00,
2013-07-30 15:03:00,82.4,76.7,29.94,SW,225,1.1,-999.0,83,-99.99,,,0.00,Acu-Link.com,2013-07-30 19:03:00,
2013-07-30 15:19:00,85.1,74.2,29.94,East,90,1.7,-999.0,70,-99.99,,,0.00,Acu-Link.com,2013-07-30 19:19:00,
2013-07-30 15:34:00,86.0,75.5,29.94,NW,315,2.7,-999.0,71,-99.99,,,0.00,Acu-Link.com,2013-07-30 19:34:00,
2013-07-30 15:49:00,86.0,74.2,29.93,NE,45,4.2,-999.0,68,-99.99,,,0.00,Acu-Link.com,2013-07-30 19:49:00,
2013-07-30 16:04:00,84.0,73.6,29.93,NE,45,0.0,-999.0,71,-99.99,,,0.00,Acu-Link.com,2013-07-30 20:04:00,
2013-07-30 16:20:00,84.2,72.5,29.92,NE,45,2.7,-999.0,68,-99.99,,,0.00,Acu-Link.com,2013-07-30 20:20:00,
2013-07-30 16:35:00,82.2,74.3,29.92,ENE,67,2.2,-999.0,77,-99.99,,,0.00,Acu-Link.com,2013-07-30 20:35:00,
2013-07-30 16:50:00,81.5,72.8,29.92,NW,315,4.2,-999.0,75,-99.99,,,0.00,Acu-Link.com,2013-07-30 20:50:00,
2013-07-30 17:06:00,80.4,73.6,29.93,North,0,3.7,-999.0,80,-99.99,,,0.00,Acu-Link.com,2013-07-30 21:06:00,
2013-07-30 17:21:00,79.2,76.7,29.91,North,0,2.7,-999.0,92,-99.99,,,0.00,Acu-Link.com,2013-07-30 21:21:00,
2013-07-30 17:36:00,78.6,78.0,29.92,NW,315,2.2,-999.0,98,-99.99,,,0.00,Acu-Link.com,2013-07-30 21:36:00,
2013-07-30 17:52:00,77.7,77.1,29.91,NNE,22,4.2,-999.0,98,-99.99,,,0.00,Acu-Link.com,2013-07-30 21:52:00,
2013-07-30 18:07:00,77.2,76.6,29.91,East,90,0.0,-999.0,98,-99.99,,,0.00,Acu-Link.com,2013-07-30 22:07:00,
2013-07-30 18:22:00,76.6,76.0,29.91,NNE,22,2.2,-999.0,98,-99.99,,,0.00,Acu-Link.com,2013-07-30 22:22:00,
2013-07-30 18:37:00,75.9,75.3,29.91,NNW,337,1.7,-999.0,98,-99.99,,,0.00,Acu-Link.com,2013-07-30 22:37:00,
2013-07-30 18:52:00,75.9,75.3,29.90,West,270,0.0,-999.0,98,-99.99,,,0.00,Acu-Link.com,2013-07-30 22:52:00,
2013-07-30 19:08:00,75.7,75.1,29.90,NNW,337,1.1,-999.0,98,-99.99,,,0.00,Acu-Link.com,2013-07-30 23:08:00,
2013-07-30 19:23:00,75.0,74.4,29.91,NNE,22,1.1,-999.0,98,-99.99,,,0.00,Acu-Link.com,2013-07-30 23:23:00,
2013-07-30 19:38:00,74.7,74.1,29.90,North,0,1.1,-999.0,98,-99.99,,,0.00,Acu-Link.com,2013-07-30 23:38:00,
2013-07-30 19:54:00,73.9,73.3,29.91,NNW,337,1.7,-999.0,98,-99.99,,,0.00,Acu-Link.com,2013-07-30 23:54:00,
2013-07-30 20:09:00,73.6,73.0,29.91,East,90,0.0,-999.0,98,-99.99,,,0.00,Acu-Link.com,2013-07-31 00:09:00,
2013-07-30 20:24:00,73.0,72.4,29.91,North,0,0.0,-999.0,98,-99.99,,,0.00,Acu-Link.com,2013-07-31 00:24:00,
2013-07-30 20:40:00,72.3,71.7,29.90,SW,225,0.0,-999.0,98,-99.99,,,0.00,Acu-Link.com,2013-07-31 00:40:00,
2013-07-30 20:55:00,71.6,71.0,29.92,SE,135,0.0,-999.0,98,-99.99,,,0.00,Acu-Link.com,2013-07-31 00:55:00,
2013-07-30 21:10:00,71.2,70.6,29.90,SE,135,0.0,-999.0,98,-99.99,,,0.00,Acu-Link.com,2013-07-31 01:10:00,
2013-07-30 21:25:00,70.5,69.9,29.92,SE,135,0.0,-999.0,98,-99.99,,,0.00,Acu-Link.com,2013-07-31 01:25:00,
2013-07-30 21:40:00,70.2,69.6,29.91,SE,135,0.0,-999.0,98,-99.99,,,0.00,Acu-Link.com,2013-07-31 01:40:00,
2013-07-30 21:56:00,69.8,69.2,29.91,SE,135,0.0,-999.0,98,-99.99,,,0.00,Acu-Link.com,2013-07-31 01:56:00,
2013-07-30 22:11:00,69.8,69.2,29.93,SE,135,0.0,-999.0,98,-99.99,,,0.00,Acu-Link.com,2013-07-31 02:11:00,
2013-07-30 22:26:00,69.6,69.0,29.93,ESE,112,0.0,-999.0,98,-99.99,,,0.00,Acu-Link.com,2013-07-31 02:26:00,
2013-07-30 22:42:00,69.6,69.0,29.94,ESE,112,0.0,-999.0,98,-99.99,,,0.00,Acu-Link.com,2013-07-31 02:42:00,
2013-07-30 23:12:00,69.4,68.8,29.92,ESE,112,0.0,-999.0,98,-99.99,,,0.00,Acu-Link.com,2013-07-31 03:12:00,
2013-07-30 23:28:00,69.1,68.5,29.91,SE,135,0.0,-999.0,98,-99.99,,,0.00,Acu-Link.com,2013-07-31 03:28:00,
2013-07-30 23:43:00,69.1,68.5,29.91,East,90,0.0,-999.0,98,-99.99,,,0.00,Acu-Link.com,2013-07-31 03:43:00,
2013-07-30 23:58:00,68.7,68.1,29.90,SSE,157,1.7,-999.0,98,-99.99,,,0.00,Acu-Link.com,2013-07-31 03:58:00,